AirNav   Everest Fuels
 
 809 users online  

9II4 Cruzan Field Airport
Arcadia, Indiana, USA

GOING TO ARCADIA?


FAA INFORMATION EFFECTIVE 05 DECEMBER 2019

Location

FAA Identifier: 9II4
Lat/Long: 40-10-21.0000N 085-56-41.0000W
40-10.350000N 085-56.683333W
40.1725000,-85.9447222
(estimated)
Elevation: 845 ft. / 258 m (estimated)
Variation: 03W (1990)
From city: 4 miles E of ARCADIA, IN
Time zone: UTC -5 (UTC -4 during Daylight Saving Time)
Zip code: 46034

Airport Operations

Airport use: Private use. Permission required prior to landing
Activation date: 11/1992
Control tower: no
ARTCC: CHICAGO CENTER
FSS: TERRE HAUTE FLIGHT SERVICE STATION
Attendance: UNATNDD
Wind indicator: yes
Segmented circle: no

Airport Communications

WX AWOS-3 at UMP (15 nm S): 119.375 (317-842-3911)
WX AWOS-3 at AID (16 nm E): 128.55 (765-442-1245)
WX AWOS-3PT at TYQ (16 nm SW): 120.725 (317-769-3154)
WX AWOS-3 at MQJ (20 nm S): 124.175 (317-335-3037)

Nearby radio navigation aids

VOR radial/distance  VOR name  Freq  Var
OKKr171/21.9KOKOMO VORTAC113.5005W
MZZr215/22.8MARION VOR/DME108.6003W
MIEr264/25.5MUNCIE VOR/DME114.4003W
VHPr041/29.0BRICKYARD VORTAC116.3001E
GUSr164/29.9GRISSOM VORTAC108.4502W
SHBr349/32.9SHELBYVILLE VOR/DME112.0001E

 
NDB name  Hdg/Dist  Freq  Var  ID
METROPOLITAN022/14.933803WUMP ..- -- .--.
NEW CASTLE307/33.738506WUWL ..- .-- .-..

Airport Services

Runway Information

Runway 9/27

Dimensions: 3300 x 70 ft. / 1006 x 21 m
Surface: turf
RUNWAY 9  RUNWAY 27
Latitude: 40-10.350000N
Longitude: 085-56.683333W
Elevation: 845.0 ft.
Traffic pattern: leftleft
Displaced threshold: no560 ft.
Obstructions: none35 ft. bldg, 140 ft. from runway

Airport Ownership and Management from official FAA records

Ownership: Privately-owned
Owner: ROBERT E. CRUZAN II
26410 S.R. 213
ARCADIA, IN 46030
Phone 317-439-0800
Manager: ROBERT E. CRUZAN II
26410 S.R. 213
ARCADIA, IN 46030
Phone 317-439-0800

Airport Operational Statistics

Aircraft based on the field: 4
Single engine airplanes: 1
Ultralights: 3
    

Additional Remarks

FOR CD CTC CHICAGO ARTCC AT 630-906-8921.

Instrument Procedures

There are no published instrument procedures at 9II4.

Some nearby airports with instrument procedures:

5I4 - Sheridan Airport (12 nm W)
KUMP - Indianapolis Metropolitan Airport (15 nm S)
KAID - Anderson Municipal Airport-Darlington Field (16 nm E)
KTYQ - Indianapolis Executive Airport (16 nm SW)
KMQJ - Indianapolis Regional Airport (20 nm S)
 
Loc | Ops | Rwys | IFR | FBO | Links
Com | Nav | Svcs | Stats | Notes
Area around 9II4 (Cruzan Field Airport)
 
Road maps at: MapQuest Bing Google
 
Aerial photo
No photo
 
Sectional chart

 
Airport distance calculator
Flying to Cruzan Field Airport? Find the distance to fly.

From to 9II4

Sunrise and sunset
Times for 08-Dec-2019
 Local
(UTC-5)
 Zulu
(UTC)
Morning civil twilight07:2412:24
Sunrise07:5512:55
Sunset17:1722:17
Evening civil twilight17:4722:47

Current date and time
Zulu (UTC)  08-Dec-2019 22:31:33
Local (UTC-5)  08-Dec-2019 17:31:33
 
METAR
KAID 
15nm E 
081355Z AUTO 20008KT 10SM CLR 02/00 A3011 RMK AO2 T00190001
KTYQ 
16nm SW 
082215Z AUTO 20011G16KT 10SM CLR 10/08 A2995 RMK AO2 T00970080
KMQJ 
20nm S 
082215Z AUTO 18005KT 10SM OVC035 10/08 A2997 RMK AO1
KOKK 
22nm N 
082156Z AUTO 19009KT 10SM CLR 10/07 A2993 RMK AO2 SLP143 T01000067
KMZZ 
23nm NE 
082215Z AUTO 19009G14KT 7SM CLR 09/07 A2994 RMK AO2 T00850066
KMIE 
25nm E 
082153Z 18008KT 10SM BKN034 11/06 A2996 RMK AO2 SLP145 T01110056
KEYE 
26nm SW 
082153Z AUTO 21008KT 10SM SCT033 12/06 A2995 RMK AO2 SLP144 T01170061
KFKR 
29nm W 
082215Z AUTO 22008KT 10SM CLR 11/07 A2994 RMK AO2 T01090065
KGUS 
29nm N 
082156Z AUTO 20010KT 10SM FEW180 10/09 A2991 RMK AO2 SLP137 T00990093 $
TAF
KGUS 
29nm N 
081900Z 0819/1001 21015KT 9999 BKN100 QNH2994INS TEMPO 0819/0901 20020G35KT 510002 BECMG 0900/0901 19012KT 9999 BKN015 620909 QNH2992INS BECMG 0909/0910 17009KT 8000 -RA OVC009 620909 QNH2966INS BECMG 0915/0916 20009KT 8000 -SHRASN OVC009 640099 QNH2950INS BECMG 1000/1001 25009KT 8000 -DZ OVC006 620069 QNH2954INS TX10/0919Z TN06/0823Z
KIND 
31nm SW 
082005Z 0820/0924 20011KT P6SM BKN028 FM082200 18009KT P6SM OVC020 FM090300 18010KT P6SM VCSH OVC015 FM090700 18010KT 4SM -SHRA BR OVC007 FM091500 19011KT 2SM SHRA BR OVC006
NOTAMs
Click for the latest NOTAMs
NOTAMs are issued by the DoD/FAA and will open in a separate window not controlled by AirNav.

 

 
 

Would you like to see your business listed on this page?

 If your business provides an interesting product or service to pilots, flight crews, aircraft, or users of the Cruzan Field Airport, you should consider listing it here.  To start the listing process, click on the button below
 
Add a business
 

Other Pages about Cruzan Field Airport

Update a link
 
Copyright © AirNav, LLC. All rights reserved. Privacy Policy  Contact